createdAt,value
2023-08-10T00:06:32.491Z,100
2023-08-10T00:16:33.313Z,100
2023-08-10T00:26:33.644Z,100
2023-08-10T00:36:34.412Z,100
2023-08-10T00:46:34.753Z,100
2023-08-10T01:16:39.288Z,100
2023-08-10T01:26:37.960Z,100
2023-08-10T01:36:38.111Z,100
2023-08-10T01:56:38.663Z,100
2023-08-10T02:06:38.975Z,100
2023-08-10T02:16:39.092Z,100
2023-08-10T02:26:39.641Z,100
2023-08-10T02:36:39.780Z,100
2023-08-10T02:46:40.111Z,100
2023-08-10T02:56:40.752Z,100
2023-08-10T03:06:40.905Z,100
2023-08-10T03:26:42.488Z,100
2023-08-10T03:46:44.258Z,100
2023-08-10T04:06:45.679Z,100
2023-08-10T04:26:46.932Z,100
2023-08-10T04:36:47.823Z,100
2023-08-10T04:46:48.736Z,100
2023-08-10T05:16:50.365Z,100
2023-08-10T05:26:51.286Z,100
2023-08-10T05:36:51.363Z,100
2023-08-10T05:46:52.310Z,100
2023-08-10T05:56:52.957Z,100
2023-08-10T06:06:53.365Z,100
2023-08-10T06:16:53.477Z,100
2023-08-10T06:26:54.210Z,100
2023-08-10T06:36:55.238Z,100
2023-08-10T06:56:56.212Z,98
2023-08-10T07:06:57.050Z,96
2023-08-10T07:26:58.288Z,89
2023-08-10T07:36:58.502Z,88
2023-08-10T07:46:58.985Z,85
2023-08-10T08:07:00.102Z,81
2023-08-10T08:17:00.571Z,80
2023-08-10T08:27:00.961Z,77
2023-08-10T08:47:02.449Z,74
2023-08-10T08:57:02.570Z,73
2023-08-10T09:17:03.945Z,72
2023-08-10T09:27:05.047Z,72
2023-08-10T09:37:05.332Z,73
2023-08-10T09:47:06.668Z,67
2023-08-10T09:57:07.214Z,69
2023-08-10T10:17:08.537Z,70
2023-08-10T10:27:09.058Z,69
2023-08-10T10:37:09.549Z,67
2023-08-10T10:57:10.357Z,67
2023-08-10T11:07:11.189Z,65
2023-08-10T11:17:11.789Z,68
2023-08-10T11:27:12.009Z,64
2023-08-10T11:37:12.788Z,65
2023-08-10T11:47:12.996Z,67
2023-08-10T11:57:14.047Z,66
2023-08-10T12:07:14.213Z,64
2023-08-10T12:27:15.528Z,69
2023-08-10T12:37:16.082Z,70
2023-08-10T12:57:16.896Z,70
2023-08-10T13:07:17.468Z,69
2023-08-10T13:27:18.342Z,72
2023-08-10T13:37:18.863Z,68
2023-08-10T13:47:19.878Z,68
2023-08-10T13:57:20.502Z,70
2023-08-10T14:07:20.362Z,71
2023-08-10T14:17:20.924Z,73
2023-08-10T14:27:21.569Z,73
2023-08-10T14:37:22.043Z,67
2023-08-10T14:47:22.462Z,68
2023-08-10T14:57:22.723Z,68
2023-08-10T15:17:23.928Z,68
2023-08-10T15:27:24.538Z,64
2023-08-10T15:37:24.886Z,65
2023-08-10T15:47:25.737Z,65
2023-08-10T15:57:26.123Z,64
2023-08-10T16:17:26.591Z,63
2023-08-10T16:27:26.814Z,64
2023-08-10T16:37:27.478Z,65
2023-08-10T16:57:28.800Z,63
2023-08-10T17:07:29.585Z,67
2023-08-10T17:27:31.061Z,65
2023-08-10T17:37:32.617Z,65
2023-08-10T17:47:32.672Z,64
2023-08-10T18:17:35.347Z,70
2023-08-10T18:37:36.096Z,77
2023-08-10T18:47:36.306Z,79
2023-08-10T18:57:37.340Z,80
2023-08-10T19:07:37.689Z,82
2023-08-10T19:17:38.446Z,84
2023-08-10T19:27:38.994Z,86
2023-08-10T19:37:39.451Z,88
2023-08-10T19:47:40.111Z,90
2023-08-10T19:57:40.753Z,92
2023-08-10T20:07:41.483Z,93
2023-08-10T20:17:42.337Z,95
2023-08-10T20:37:43.581Z,96
2023-08-10T20:47:44.493Z,97
2023-08-10T20:57:44.844Z,97
2023-08-10T21:07:45.398Z,98
2023-08-10T21:17:45.811Z,99
2023-08-10T21:27:46.141Z,99
2023-08-10T21:37:46.684Z,99
2023-08-10T21:47:47.273Z,99
2023-08-10T21:57:48.345Z,99
2023-08-10T22:07:49.056Z,100
2023-08-10T22:27:49.906Z,100
2023-08-10T22:37:50.302Z,100
2023-08-10T22:47:51.155Z,100
2023-08-10T22:57:51.769Z,100
2023-08-10T23:07:52.734Z,100
2023-08-10T23:17:53.464Z,100
2023-08-10T23:27:53.738Z,100
2023-08-10T23:47:55.217Z,100
2023-08-10T23:57:55.647Z,100
